createdAt,value
2018-09-03T00:01:24.177Z,3.07
2018-09-03T00:03:53.403Z,3.30
2018-09-03T00:06:22.675Z,3.23
2018-09-03T00:08:52.278Z,3.10
2018-09-03T00:11:26.536Z,2.87
2018-09-03T00:13:55.830Z,2.97
2018-09-03T00:16:25.090Z,3.03
2018-09-03T00:18:54.328Z,2.90
2018-09-03T00:21:23.761Z,2.90
2018-09-03T00:23:53.133Z,3.53
2018-09-03T00:26:22.505Z,3.57
2018-09-03T00:28:51.726Z,3.23
2018-09-03T00:31:31.359Z,3.27
2018-09-03T00:34:05.936Z,3.37
2018-09-03T00:36:40.512Z,3.37
2018-09-03T00:39:14.950Z,3.70
2018-09-03T00:41:49.401Z,3.20
2018-09-03T00:44:23.861Z,3.57
2018-09-03T00:46:56.158Z,3.50
2018-09-03T00:49:25.549Z,3.50
2018-09-03T00:51:54.859Z,3.13
2018-09-03T00:54:24.174Z,3.50
2018-09-03T00:56:53.452Z,3.63
2018-09-03T00:59:22.768Z,3.50
2018-09-03T01:01:52.115Z,3.73
2018-09-03T01:04:21.424Z,3.40
2018-09-03T01:06:50.762Z,3.80
2018-09-03T01:09:20.477Z,3.83
2018-09-03T01:11:49.820Z,3.90
2018-09-03T01:14:20.155Z,3.87
2018-09-03T01:16:49.431Z,3.73
2018-09-03T01:19:18.703Z,3.53
2018-09-03T01:21:47.931Z,3.63
2018-09-03T01:24:17.667Z,3.80
2018-09-03T01:26:46.922Z,3.30
2018-09-03T01:29:16.196Z,3.70
2018-09-03T01:31:49.651Z,3.67
2018-09-03T01:34:18.923Z,3.97
2018-09-03T01:36:48.219Z,3.60
2018-09-03T01:39:17.487Z,3.80
2018-09-03T01:41:46.751Z,3.60
2018-09-03T01:44:16.106Z,3.43
2018-09-03T01:46:45.402Z,4.13
2018-09-03T01:49:14.663Z,4.27
2018-09-03T01:51:43.958Z,3.80
2018-09-03T01:54:13.242Z,3.60
2018-09-03T01:56:42.981Z,3.80
2018-09-03T01:59:12.170Z,3.60
2018-09-03T02:01:42.585Z,3.60
2018-09-03T02:04:11.867Z,3.80
2018-09-03T02:06:41.488Z,3.40
2018-09-03T02:09:12.377Z,3.43
2018-09-03T02:11:42.107Z,3.70
2018-09-03T02:14:11.394Z,3.80
2018-09-03T02:16:40.624Z,3.60
2018-09-03T02:19:10.254Z,3.73
2018-09-03T02:21:39.524Z,3.50
2018-09-03T02:24:08.830Z,3.70
2018-09-03T02:26:38.155Z,3.70
2018-09-03T02:29:07.487Z,4.00
2018-09-03T02:31:36.791Z,3.80
2018-09-03T02:34:06.095Z,5.30
2018-09-03T02:36:35.397Z,4.30
2018-09-03T02:39:06.369Z,3.77
2018-09-03T02:41:35.679Z,3.67
2018-09-03T02:44:04.935Z,4.00
2018-09-03T02:46:34.266Z,4.40
2018-09-03T02:49:03.520Z,4.07
2018-09-03T02:51:32.779Z,3.80
2018-09-03T02:54:02.967Z,3.90
2018-09-03T02:56:32.210Z,3.90
2018-09-03T02:59:01.483Z,4.20
2018-09-03T03:01:30.798Z,3.80
2018-09-03T03:04:00.012Z,3.53
2018-09-03T03:06:29.304Z,4.50
2018-09-03T03:08:58.623Z,4.23
2018-09-03T03:11:27.861Z,4.40
2018-09-03T03:13:57.111Z,4.70
2018-09-03T03:16:26.686Z,4.10
2018-09-03T03:18:55.995Z,4.30
2018-09-03T03:21:25.420Z,4.20
2018-09-03T03:23:55.065Z,4.50
2018-09-03T03:26:24.330Z,4.43
2018-09-03T03:28:53.761Z,4.67
2018-09-03T03:31:23.373Z,5.10
2018-09-03T03:33:52.772Z,4.70
2018-09-03T03:36:22.127Z,4.47
2018-09-03T03:39:06.141Z,4.60
2018-09-03T03:41:35.407Z,5.17
2018-09-03T03:44:04.763Z,4.97
2018-09-03T03:46:34.180Z,5.40
2018-09-03T03:49:03.433Z,5.23
2018-09-03T03:51:32.671Z,4.43
2018-09-03T03:54:01.901Z,4.73
2018-09-03T03:56:31.226Z,4.97
2018-09-03T03:59:00.495Z,4.80
2018-09-03T04:01:29.735Z,5.53
2018-09-03T04:03:59.015Z,5.80
2018-09-03T04:06:28.525Z,5.33
2018-09-03T04:08:57.842Z,5.37
2018-09-03T04:11:27.184Z,5.50
2018-09-03T04:13:56.524Z,5.87
2018-09-03T04:16:25.947Z,5.57
2018-09-03T04:18:57.340Z,5.47
2018-09-03T04:21:26.906Z,5.90
2018-09-03T04:23:56.532Z,6.40
2018-09-03T04:26:25.820Z,6.27
2018-09-03T04:28:55.289Z,6.07
2018-09-03T04:31:24.598Z,6.37
2018-09-03T04:33:53.959Z,9.80
2018-09-03T04:36:23.312Z,17.47
2018-09-03T04:38:52.734Z,21.87
2018-09-03T04:41:21.956Z,24.73
2018-09-03T04:43:56.785Z,24.93
2018-09-03T04:46:26.157Z,20.67
2018-09-03T04:48:55.834Z,17.33
2018-09-03T04:51:25.131Z,15.17
2018-09-03T04:53:54.504Z,15.60
2018-09-03T04:56:23.716Z,14.37
2018-09-03T04:58:53.100Z,12.77
2018-09-03T05:01:22.515Z,10.07
2018-09-03T05:03:52.210Z,10.10
2018-09-03T05:06:21.611Z,9.33
2018-09-03T05:08:50.898Z,8.87
2018-09-03T05:11:20.257Z,8.03
2018-09-03T05:13:53.127Z,8.27
2018-09-03T05:16:22.399Z,8.40
2018-09-03T05:18:51.843Z,7.47
2018-09-03T05:21:21.132Z,7.77
2018-09-03T05:23:50.410Z,7.60
2018-09-03T05:26:19.782Z,8.10
2018-09-03T05:28:49.068Z,8.13
2018-09-03T05:31:20.318Z,7.80
2018-09-03T05:33:50.579Z,7.93
2018-09-03T05:36:20.100Z,8.50
2018-09-03T05:38:49.509Z,8.03
2018-09-03T05:41:18.902Z,8.20
2018-09-03T05:43:48.183Z,8.13
2018-09-03T05:46:17.563Z,7.93
2018-09-03T05:48:46.825Z,7.60
2018-09-03T05:51:16.075Z,7.83
2018-09-03T05:53:45.448Z,7.80
2018-09-03T05:56:14.662Z,7.67
2018-09-03T05:58:43.839Z,7.40
2018-09-03T06:01:13.067Z,7.13
2018-09-03T06:03:42.333Z,8.40
2018-09-03T06:06:11.602Z,7.80
2018-09-03T06:08:40.823Z,8.00
2018-09-03T06:11:10.176Z,7.57
2018-09-03T06:13:39.334Z,7.70
2018-09-03T06:16:08.597Z,7.73
2018-09-03T06:18:37.903Z,7.73
2018-09-03T06:21:13.199Z,7.80
2018-09-03T06:23:42.536Z,7.30
2018-09-03T06:26:12.069Z,7.80
2018-09-03T06:28:41.321Z,7.13
2018-09-03T06:31:10.606Z,7.40
2018-09-03T06:33:39.847Z,7.57
2018-09-03T06:36:09.085Z,7.77
2018-09-03T06:38:38.402Z,7.70
2018-09-03T06:41:07.675Z,7.17
2018-09-03T06:43:36.992Z,7.90
2018-09-03T06:46:06.231Z,7.60
2018-09-03T06:48:35.535Z,8.20
2018-09-03T06:51:04.843Z,9.13
2018-09-03T06:53:37.809Z,8.50
2018-09-03T06:56:07.119Z,7.53
2018-09-03T06:58:36.351Z,7.37
2018-09-03T07:01:05.807Z,7.10
2018-09-03T07:03:35.127Z,7.23
2018-09-03T07:06:04.499Z,7.10
2018-09-03T07:08:33.831Z,9.07
2018-09-03T07:11:03.214Z,7.93
2018-09-03T07:13:32.510Z,8.30
2018-09-03T07:16:01.839Z,7.50
2018-09-03T07:18:31.110Z,7.30
2018-09-03T07:21:00.596Z,7.50
2018-09-03T07:23:29.929Z,7.70
2018-09-03T07:25:59.234Z,8.07
2018-09-03T07:28:28.627Z,8.13
2018-09-03T07:30:58.327Z,7.23
2018-09-03T07:33:27.667Z,8.40
2018-09-03T07:35:57.075Z,8.83
2018-09-03T07:38:26.624Z,9.67
2018-09-03T07:40:55.911Z,9.00
2018-09-03T07:43:25.171Z,10.13
2018-09-03T07:45:54.553Z,13.97
2018-09-03T07:48:23.815Z,9.67
2018-09-03T07:50:53.048Z,10.13
2018-09-03T07:53:22.332Z,10.13
2018-09-03T07:55:51.582Z,9.23
2018-09-03T07:58:20.968Z,9.87
2018-09-03T08:00:50.245Z,9.97
2018-09-03T08:03:19.575Z,10.03
2018-09-03T08:05:48.819Z,9.30
2018-09-03T08:08:18.172Z,9.40
2018-09-03T08:10:47.456Z,9.03
2018-09-03T08:13:21.932Z,9.73
2018-09-03T08:15:51.181Z,8.70
2018-09-03T08:18:20.537Z,9.40
2018-09-03T08:20:49.799Z,9.73
2018-09-03T08:23:19.032Z,11.73
2018-09-03T08:25:48.303Z,8.83
2018-09-03T08:28:17.927Z,9.33
2018-09-03T08:30:47.540Z,8.30
2018-09-03T08:33:16.799Z,8.77
2018-09-03T08:35:46.069Z,8.27
2018-09-03T08:38:15.410Z,8.57
2018-09-03T08:40:44.689Z,8.37
2018-09-03T08:43:14.981Z,9.03
2018-09-03T08:45:44.240Z,9.00
2018-09-03T08:48:13.535Z,23.47
2018-09-03T08:50:42.794Z,8.70
2018-09-03T08:53:12.056Z,8.30
2018-09-03T08:55:41.313Z,8.97
2018-09-03T08:58:10.631Z,8.37
2018-09-03T09:00:39.963Z,8.53
2018-09-03T09:03:14.582Z,8.30
2018-09-03T09:05:43.901Z,9.23
2018-09-03T09:08:13.177Z,8.23
2018-09-03T09:10:42.431Z,8.87
2018-09-03T09:13:11.840Z,7.80
2018-09-03T09:15:41.647Z,13.37
2018-09-03T09:18:10.932Z,9.17
2018-09-03T09:20:40.586Z,8.53
2018-09-03T09:23:09.925Z,9.07
2018-09-03T09:25:39.143Z,8.77
2018-09-03T09:28:08.570Z,8.33
2018-09-03T09:30:37.815Z,7.83
2018-09-03T09:33:07.232Z,8.53
2018-09-03T09:35:36.599Z,8.47
2018-09-03T09:38:05.986Z,9.33
2018-09-03T09:40:35.317Z,9.57
2018-09-03T09:43:04.707Z,9.00
2018-09-03T09:45:33.956Z,9.83
2018-09-03T09:48:03.232Z,9.03
2018-09-03T09:50:32.575Z,9.53
2018-09-03T09:53:01.988Z,9.83
2018-09-03T09:55:31.264Z,9.20
2018-09-03T09:58:00.489Z,9.50
2018-09-03T10:00:34.780Z,10.60
2018-09-03T10:03:04.101Z,10.57
2018-09-03T10:05:33.374Z,10.50
2018-09-03T10:08:02.960Z,10.00
2018-09-03T10:10:32.139Z,9.97
2018-09-03T10:13:01.387Z,9.80
2018-09-03T10:15:30.689Z,10.23
2018-09-03T10:18:00.023Z,10.67
2018-09-03T10:20:29.319Z,11.03
2018-09-03T10:22:58.543Z,9.50
2018-09-03T10:25:27.740Z,9.67
2018-09-03T10:27:57.028Z,9.87
2018-09-03T10:30:26.367Z,11.17
2018-09-03T10:32:55.640Z,11.70
2018-09-03T10:35:24.879Z,11.73
2018-09-03T10:37:54.129Z,13.17
2018-09-03T10:40:23.453Z,12.23
2018-09-03T10:42:52.732Z,12.13
2018-09-03T10:45:22.117Z,13.60
2018-09-03T10:47:51.418Z,13.00
2018-09-03T10:50:20.703Z,12.40
2018-09-03T10:52:49.927Z,14.67
2018-09-03T10:55:19.228Z,14.23
2018-09-03T10:57:48.548Z,14.60
2018-09-03T11:00:17.869Z,12.57
2018-09-03T11:02:47.158Z,12.77
2018-09-03T11:05:16.566Z,12.87
2018-09-03T11:07:45.821Z,11.90
2018-09-03T11:10:15.118Z,13.27
2018-09-03T11:12:44.493Z,13.47
2018-09-03T11:15:13.760Z,14.23
2018-09-03T11:17:43.365Z,15.57
2018-09-03T11:20:16.276Z,15.40
2018-09-03T11:22:45.537Z,14.30
2018-09-03T11:25:14.838Z,13.77
2018-09-03T11:27:44.135Z,13.87
2018-09-03T11:30:13.477Z,13.90
2018-09-03T11:32:46.833Z,14.47
2018-09-03T11:35:16.147Z,13.50
2018-09-03T11:37:45.391Z,13.27
2018-09-03T11:40:14.661Z,12.17
2018-09-03T11:42:43.972Z,13.23
2018-09-03T11:45:13.248Z,13.20
2018-09-03T11:47:42.469Z,12.40
2018-09-03T11:50:11.817Z,12.03
2018-09-03T11:52:41.082Z,13.27
2018-09-03T11:55:10.531Z,11.33
2018-09-03T11:57:39.838Z,13.63
2018-09-03T12:00:12.713Z,13.87
2018-09-03T12:02:42.003Z,12.93
2018-09-03T12:05:11.261Z,13.23
2018-09-03T12:07:40.531Z,12.83
2018-09-03T12:10:09.783Z,13.93
2018-09-03T12:12:39.098Z,15.67
2018-09-03T12:15:12.942Z,14.77
2018-09-03T12:17:42.256Z,14.93
2018-09-03T12:20:11.551Z,16.17
2018-09-03T12:22:40.867Z,16.70
2018-09-03T12:25:10.218Z,16.20
2018-09-03T12:27:39.482Z,16.77
2018-09-03T12:30:08.965Z,16.30
2018-09-03T12:32:38.278Z,15.97
2018-09-03T12:35:07.755Z,15.70
2018-09-03T12:37:37.021Z,15.60
2018-09-03T12:40:06.431Z,14.23
2018-09-03T12:42:35.720Z,14.80
2018-09-03T12:45:05.192Z,15.23
2018-09-03T12:47:34.535Z,14.57
2018-09-03T12:50:03.979Z,15.57
2018-09-03T12:52:33.288Z,15.70
2018-09-03T12:55:02.511Z,14.70
2018-09-03T12:57:31.820Z,14.80
2018-09-03T13:00:05.147Z,16.07
2018-09-03T13:02:30.419Z,16.67
2018-09-03T13:04:59.719Z,15.60
2018-09-03T13:07:28.984Z,16.10
2018-09-03T13:09:58.307Z,15.67
2018-09-03T13:12:27.546Z,14.90
2018-09-03T13:14:56.840Z,15.27
2018-09-03T13:17:26.138Z,15.40
2018-09-03T13:19:55.468Z,16.27
2018-09-03T13:22:24.789Z,15.00
2018-09-03T13:24:54.124Z,15.00
2018-09-03T13:27:23.412Z,15.77
2018-09-03T13:29:52.669Z,15.63
2018-09-03T13:32:22.012Z,14.17
2018-09-03T13:34:51.266Z,14.10
2018-09-03T13:37:20.611Z,14.60
2018-09-03T13:39:49.974Z,14.10
2018-09-03T13:42:19.290Z,13.03
2018-09-03T13:44:48.552Z,14.43
2018-09-03T13:47:17.773Z,14.40
2018-09-03T13:49:47.055Z,14.60
2018-09-03T13:52:16.532Z,15.10
2018-09-03T13:54:46.094Z,13.30
2018-09-03T13:57:15.536Z,14.90
2018-09-03T13:59:44.795Z,14.97
2018-09-03T14:02:14.058Z,15.83
2018-09-03T14:04:43.305Z,15.00
2018-09-03T14:07:12.598Z,14.97
2018-09-03T14:09:41.948Z,16.67
2018-09-03T14:12:11.313Z,15.57
2018-09-03T14:14:40.579Z,15.70
2018-09-03T14:17:09.890Z,14.90
2018-09-03T14:19:39.220Z,15.23
2018-09-03T14:22:08.495Z,15.73
2018-09-03T14:24:37.891Z,14.47
2018-09-03T14:27:07.384Z,15.33
2018-09-03T14:29:36.618Z,15.00
2018-09-03T14:32:06.022Z,15.93
2018-09-03T14:34:35.279Z,15.87
2018-09-03T14:37:04.636Z,15.87
2018-09-03T14:39:33.951Z,16.63
2018-09-03T14:42:03.206Z,15.60
2018-09-03T14:44:32.453Z,15.67
2018-09-03T14:47:01.757Z,15.43
2018-09-03T14:49:31.134Z,15.33
2018-09-03T14:52:00.461Z,13.97
2018-09-03T14:54:29.724Z,14.50
2018-09-03T14:56:58.995Z,15.40
2018-09-03T14:59:28.365Z,14.60
2018-09-03T15:01:57.736Z,15.57
2018-09-03T15:04:27.086Z,15.03
2018-09-03T15:06:56.419Z,15.40
2018-09-03T15:09:25.693Z,14.57
2018-09-03T15:11:54.969Z,14.50
2018-09-03T15:14:24.282Z,14.17
2018-09-03T15:16:53.588Z,15.90
2018-09-03T15:19:22.819Z,14.87
2018-09-03T15:21:52.048Z,14.30
2018-09-03T15:24:21.344Z,16.53
2018-09-03T15:26:50.724Z,15.10
2018-09-03T15:29:20.042Z,15.83
2018-09-03T15:31:49.435Z,15.10
2018-09-03T15:34:18.694Z,15.67
2018-09-03T15:36:47.971Z,15.10
2018-09-03T15:39:17.279Z,15.70
2018-09-03T15:41:46.499Z,15.73
2018-09-03T15:44:15.779Z,15.70
2018-09-03T15:46:45.028Z,15.17
2018-09-03T15:49:14.397Z,14.90
2018-09-03T15:51:43.711Z,15.10
2018-09-03T15:54:12.954Z,15.57
2018-09-03T15:56:42.206Z,15.67
2018-09-03T15:59:14.929Z,16.07
2018-09-03T16:01:44.242Z,15.27
2018-09-03T16:04:13.509Z,14.83
2018-09-03T16:06:42.826Z,15.53
2018-09-03T16:09:12.157Z,14.97
2018-09-03T16:11:41.595Z,15.70
2018-09-03T16:14:10.910Z,15.33
2018-09-03T16:16:40.194Z,16.33
2018-09-03T16:19:09.543Z,15.80
2018-09-03T16:21:54.098Z,16.20
2018-09-03T16:24:30.174Z,15.83
2018-09-03T16:26:59.680Z,15.17
2018-09-03T16:29:29.055Z,15.63
2018-09-03T16:31:58.351Z,15.17
2018-09-03T16:34:27.755Z,16.30
2018-09-03T16:36:57.018Z,17.00
2018-09-03T16:39:26.304Z,16.97
2018-09-03T16:41:55.762Z,16.73
2018-09-03T16:44:25.000Z,15.70
2018-09-03T16:46:54.347Z,16.20
2018-09-03T16:49:23.690Z,16.53
2018-09-03T16:51:53.012Z,15.07
2018-09-03T16:54:22.460Z,16.53
2018-09-03T16:56:51.835Z,15.20
2018-09-03T16:59:21.825Z,15.33
2018-09-03T17:01:51.076Z,14.80
2018-09-03T17:04:20.378Z,15.30
2018-09-03T17:06:49.739Z,15.60
2018-09-03T17:09:19.601Z,15.70
2018-09-03T17:11:48.980Z,15.67
2018-09-03T17:14:20.305Z,16.10
2018-09-03T17:16:49.623Z,15.07
2018-09-03T17:19:18.861Z,15.60
2018-09-03T17:21:48.538Z,15.90
2018-09-03T17:24:17.841Z,15.17
2018-09-03T17:26:47.133Z,15.20
2018-09-03T17:29:16.420Z,16.10
2018-09-03T17:31:45.787Z,14.93
2018-09-03T17:34:15.059Z,16.20
2018-09-03T17:36:44.429Z,16.60
2018-09-03T17:39:14.784Z,15.37
2018-09-03T17:41:44.068Z,16.50
2018-09-03T17:44:13.358Z,16.43
2018-09-03T17:46:42.716Z,16.10
2018-09-03T17:49:12.434Z,16.13
2018-09-03T17:51:41.941Z,16.60
2018-09-03T17:54:11.230Z,15.73
2018-09-03T17:56:40.579Z,16.67
2018-09-03T17:59:09.882Z,16.73
2018-09-03T18:01:39.217Z,17.23
2018-09-03T18:04:09.275Z,16.93
2018-09-03T18:06:38.610Z,16.43
2018-09-03T18:09:08.248Z,16.90
2018-09-03T18:11:37.535Z,15.90
2018-09-03T18:14:06.910Z,16.10
2018-09-03T18:16:36.308Z,15.87
2018-09-03T18:19:05.688Z,16.30
2018-09-03T18:21:35.142Z,16.10
2018-09-03T18:24:06.435Z,15.80
2018-09-03T18:26:35.813Z,15.53
2018-09-03T18:29:05.172Z,15.43
2018-09-03T18:31:34.507Z,15.17
2018-09-03T18:34:03.971Z,15.93
2018-09-03T18:36:33.339Z,17.73
2018-09-03T18:39:02.783Z,18.03
2018-09-03T18:41:32.013Z,15.87
2018-09-03T18:44:01.352Z,16.80
2018-09-03T18:46:32.863Z,16.13
2018-09-03T18:49:02.448Z,18.57
2018-09-03T18:51:31.711Z,17.73
2018-09-03T18:54:01.143Z,18.80
2018-09-03T18:56:30.379Z,18.33
2018-09-03T18:58:59.763Z,17.80
2018-09-03T19:01:29.235Z,17.47
2018-09-03T19:03:58.556Z,18.23
2018-09-03T19:06:27.992Z,17.83
2018-09-03T19:08:57.267Z,18.03
2018-09-03T19:11:26.609Z,17.60
2018-09-03T19:13:55.855Z,17.23
2018-09-03T19:16:25.175Z,17.33
2018-09-03T19:18:54.452Z,18.30
2018-09-03T19:21:23.691Z,18.30
2018-09-03T19:23:53.071Z,17.70
2018-09-03T19:26:23.152Z,18.40
2018-09-03T19:28:52.801Z,25.67
2018-09-03T19:31:22.172Z,19.13
2018-09-03T19:33:51.485Z,18.23
2018-09-03T19:36:20.819Z,17.77
2018-09-03T19:38:50.137Z,18.57
2018-09-03T19:41:19.471Z,18.40
2018-09-03T19:43:49.780Z,18.77
2018-09-03T19:46:19.103Z,19.60
2018-09-03T19:48:48.431Z,19.00
2018-09-03T19:51:17.751Z,20.47
2018-09-03T19:53:47.124Z,20.10
2018-09-03T19:56:18.609Z,18.07
2018-09-03T19:58:49.992Z,18.20
2018-09-03T20:01:19.273Z,18.33
2018-09-03T20:03:48.543Z,20.93
2018-09-03T20:06:17.930Z,21.80
2018-09-03T20:08:48.280Z,21.57
2018-09-03T20:11:17.589Z,21.10
2018-09-03T20:13:46.803Z,20.33
2018-09-03T20:16:16.822Z,90.17
2018-09-03T20:18:46.110Z,27.47
2018-09-03T20:21:15.386Z,23.00
2018-09-03T20:23:45.036Z,24.53
2018-09-03T20:26:14.329Z,23.00
2018-09-03T20:28:43.579Z,24.57
2018-09-03T20:31:12.901Z,24.23
2018-09-03T20:33:42.199Z,24.43
2018-09-03T20:36:11.417Z,23.50
2018-09-03T20:38:40.753Z,21.60
2018-09-03T20:41:10.462Z,20.90
2018-09-03T20:43:39.735Z,24.17
2018-09-03T20:46:09.079Z,23.37
2018-09-03T20:48:38.476Z,23.23
2018-09-03T20:51:07.758Z,22.83
2018-09-03T20:53:37.158Z,22.50
2018-09-03T20:56:06.764Z,23.27
2018-09-03T20:58:36.087Z,25.63
2018-09-03T21:01:05.387Z,24.33
2018-09-03T21:03:34.691Z,23.60
2018-09-03T21:06:03.991Z,23.83
2018-09-03T21:08:33.329Z,24.47
2018-09-03T21:11:02.627Z,23.77
2018-09-03T21:13:32.256Z,23.83
2018-09-03T21:16:01.589Z,24.23
2018-09-03T21:18:30.859Z,23.17
2018-09-03T21:21:00.132Z,24.63
2018-09-03T21:23:29.455Z,23.83
2018-09-03T21:25:58.763Z,26.13
2018-09-03T21:28:29.191Z,24.90
2018-09-03T21:30:58.462Z,23.83
2018-09-03T21:33:27.769Z,25.30
2018-09-03T21:35:57.099Z,25.53
2018-09-03T21:38:26.371Z,24.20
2018-09-03T21:40:55.587Z,24.07
2018-09-03T21:43:24.823Z,25.93
2018-09-03T21:45:54.546Z,24.03
2018-09-03T21:48:23.812Z,26.17
2018-09-03T21:50:53.155Z,25.63
2018-09-03T21:53:22.482Z,26.57
2018-09-03T21:55:52.862Z,25.77
2018-09-03T21:58:22.115Z,25.13
2018-09-03T22:00:51.386Z,27.40
2018-09-03T22:03:20.636Z,25.80
2018-09-03T22:05:49.915Z,26.33
2018-09-03T22:08:19.211Z,25.80
2018-09-03T22:10:48.528Z,25.93
2018-09-03T22:13:20.119Z,26.47
2018-09-03T22:15:49.417Z,26.87
2018-09-03T22:18:18.720Z,28.43
2018-09-03T22:20:48.047Z,25.90
2018-09-03T22:23:17.320Z,25.10
2018-09-03T22:25:46.583Z,25.40
2018-09-03T22:28:15.862Z,24.43
2018-09-03T22:30:45.163Z,25.83
2018-09-03T22:33:14.443Z,25.43
2018-09-03T22:35:43.701Z,25.53
2018-09-03T22:38:12.958Z,26.37
2018-09-03T22:40:42.263Z,25.13
2018-09-03T22:43:11.514Z,26.97
2018-09-03T22:45:40.756Z,29.37
2018-09-03T22:48:11.193Z,28.93
2018-09-03T22:50:40.514Z,28.77
2018-09-03T22:53:09.776Z,29.13
2018-09-03T22:55:38.995Z,30.07
2018-09-03T22:58:08.263Z,30.30
2018-09-03T23:00:37.537Z,29.40
2018-09-03T23:03:12.702Z,29.37
2018-09-03T23:05:41.951Z,27.63
2018-09-03T23:08:11.271Z,27.17
2018-09-03T23:10:40.505Z,26.37
2018-09-03T23:13:09.695Z,26.37
2018-09-03T23:15:38.998Z,26.23
2018-09-03T23:18:08.239Z,26.00
2018-09-03T23:20:37.595Z,27.57
2018-09-03T23:23:06.838Z,25.13
2018-09-03T23:25:36.094Z,27.20
2018-09-03T23:28:05.411Z,24.63
2018-09-03T23:30:34.614Z,25.07
2018-09-03T23:33:03.876Z,25.00
2018-09-03T23:35:34.577Z,25.63
2018-09-03T23:38:03.859Z,28.00
2018-09-03T23:40:33.248Z,27.50
2018-09-03T23:43:02.535Z,27.47
2018-09-03T23:45:31.818Z,25.70
2018-09-03T23:48:01.131Z,25.73
2018-09-03T23:50:30.403Z,24.13
2018-09-03T23:52:59.679Z,24.47
2018-09-03T23:55:28.958Z,24.40
2018-09-03T23:57:58.214Z,24.30
